Terminal Aerodrome Forecast
Issued by NWS Bismarck, ND

Home | Current Version | Previous Version | Text Only | Print | Product List | Glossary On
Versions: 1 2 3 4 5 6 7 8 9 10 11 12 13 14 15 16 17 18 19
000
FTUS43 KBIS 221100
TAFBIS
TAF
KBIS 221140Z 2212/2312 13005KT 3/4SM BR OVC003
      TEMPO 2212/2215 1/4SM FZFG OVC001
     FM221500 05005KT 2SM -SN BR OVC010
     FM221800 01014KT 1SM -SN BR OVC008
     FM230000 35018G24KT 1SM -SN BR OVC008=

USA.gov is the U.S. government's official web portal to all federal, state and local government web resources and services.